Jubail Airport
OEJB : now visible

Airfield :











YOU CAN JOIN US ON...

 
LOGIN :

Register | Disclaimer

   EN    FR    IT 

 









Legend :    VFR   Marginal VFR   IFR   Intensive IFR   Very Intensive IFR
Visi :
Ceiling :
>= 8 km
>= 3000ft
5 to 8 km
1000 to 3000 ft
1500m to 5 km
500 to 1000 ft
800 to 1500m
200 to 500 ft
< 800m
< 200 ft
Symbols :   Thunderstorms  Fog  Heavy snow  Heavy precipitations  Wind > 20 kt






- Airport Elevation : 26 ft
- IATA code : QJB


OEJB - Jubail

CURRENT METAR :
  • 261100Z AUTO 35012KT 310V020 7000 FEW020 OVC027 23/08 Q1016 NOSIG

EXPIRED METARs :
  • 261000Z AUTO 32016KT 5000 FEW019 BKN023 OVC027 23/07 Q1016 NOSIG
  • 260900Z AUTO 31017KT 8000 BKN026 BKN030 22/07 Q1017 NOSIG

Expired Forecast.



MET'MAP, your aeronautical weather chart ! - Copyright ORBIFLY December 2007 - Disclaimer

ORBIFLY MET'MAP TEAM :

Programming & Development : Alexandra Zaïnal
Concept & original design : Baudouin d'Aumeries
Assistance for programming : Marc-Olivier Méhu
Technical & hardware support : Manuel Goepfert

Contact : metmap@orbifly.com




SOURCES & CREDITS :

   NOAA       Earth
Advisory